sensor_id;sensor_type;location;lat;lon;timestamp;temperature;humidity
12119;DHT22;6123;48.864;9.200;2023-05-24T00:00:28;13.50;99.90
12119;DHT22;6123;48.864;9.200;2023-05-24T00:02:53;13.50;99.90
12119;DHT22;6123;48.864;9.200;2023-05-24T00:05:19;13.50;99.90
12119;DHT22;6123;48.864;9.200;2023-05-24T00:07:45;13.40;99.90
12119;DHT22;6123;48.864;9.200;2023-05-24T00:10:11;13.50;99.90
12119;DHT22;6123;48.864;9.200;2023-05-24T00:12:36;13.50;99.90
12119;DHT22;6123;48.864;9.200;2023-05-24T00:15:02;13.50;99.90
12119;DHT22;6123;48.864;9.200;2023-05-24T00:17:28;13.40;99.90
12119;DHT22;6123;48.864;9.200;2023-05-24T00:19:54;13.30;99.90
12119;DHT22;6123;48.864;9.200;2023-05-24T00:22:20;13.40;99.90
12119;DHT22;6123;48.864;9.200;2023-05-24T00:24:46;13.50;99.90
12119;DHT22;6123;48.864;9.200;2023-05-24T00:27:13;13.40;99.90
12119;DHT22;6123;48.864;9.200;2023-05-24T00:29:39;13.40;99.90
12119;DHT22;6123;48.864;9.200;2023-05-24T00:32:04;13.50;99.90
12119;DHT22;6123;48.864;9.200;2023-05-24T00:34:30;13.50;99.90
12119;DHT22;6123;48.864;9.200;2023-05-24T00:36:56;13.30;99.90
12119;DHT22;6123;48.864;9.200;2023-05-24T00:39:22;13.30;99.90
12119;DHT22;6123;48.864;9.200;2023-05-24T00:41:47;13.40;99.90
12119;DHT22;6123;48.864;9.200;2023-05-24T00:44:13;13.30;99.90
12119;DHT22;6123;48.864;9.200;2023-05-24T00:46:39;13.30;99.90
12119;DHT22;6123;48.864;9.200;2023-05-24T00:49:04;13.20;99.90
12119;DHT22;6123;48.864;9.200;2023-05-24T00:51:30;13.30;99.90
12119;DHT22;6123;48.864;9.200;2023-05-24T00:53:58;13.30;99.90
12119;DHT22;6123;48.864;9.200;2023-05-24T00:56:24;13.40;99.90
12119;DHT22;6123;48.864;9.200;2023-05-24T00:58:50;13.30;99.90
12119;DHT22;6123;48.864;9.200;2023-05-24T01:01:19;13.40;99.90
12119;DHT22;6123;48.864;9.200;2023-05-24T01:03:44;13.30;99.90
12119;DHT22;6123;48.864;9.200;2023-05-24T01:06:12;13.10;99.90
12119;DHT22;6123;48.864;9.200;2023-05-24T01:17:20;13.00;99.90
12119;DHT22;6123;48.864;9.200;2023-05-24T01:22:35;13.10;99.90
12119;DHT22;6123;48.864;9.200;2023-05-24T01:26:18;13.10;99.90
12119;DHT22;6123;48.864;9.200;2023-05-24T01:28:11;12.80;99.90
12119;DHT22;6123;48.864;9.200;2023-05-24T01:30:41;12.90;99.90
12119;DHT22;6123;48.864;9.200;2023-05-24T01:33:07;12.80;99.90
12119;DHT22;6123;48.864;9.200;2023-05-24T01:35:33;12.80;99.90
12119;DHT22;6123;48.864;9.200;2023-05-24T01:38:08;12.80;99.90
12119;DHT22;6123;48.864;9.200;2023-05-24T01:40:36;12.80;99.90
12119;DHT22;6123;48.864;9.200;2023-05-24T01:43:13;12.80;99.90
12119;DHT22;6123;48.864;9.200;2023-05-24T01:46:10;12.80;99.90
12119;DHT22;6123;48.864;9.200;2023-05-24T01:48:50;12.80;99.90
12119;DHT22;6123;48.864;9.200;2023-05-24T01:51:22;12.60;99.90
12119;DHT22;6123;48.864;9.200;2023-05-24T01:53:49;12.60;99.90
12119;DHT22;6123;48.864;9.200;2023-05-24T01:56:16;12.70;99.90
12119;DHT22;6123;48.864;9.200;2023-05-24T01:58:45;12.70;99.90
12119;DHT22;6123;48.864;9.200;2023-05-24T02:01:11;12.60;99.90
12119;DHT22;6123;48.864;9.200;2023-05-24T02:03:39;12.60;99.90
12119;DHT22;6123;48.864;9.200;2023-05-24T02:06:05;12.60;99.90
12119;DHT22;6123;48.864;9.200;2023-05-24T02:08:31;12.60;99.90
12119;DHT22;6123;48.864;9.200;2023-05-24T02:10:56;12.50;99.90
12119;DHT22;6123;48.864;9.200;2023-05-24T02:13:22;12.50;99.90
12119;DHT22;6123;48.864;9.200;2023-05-24T02:15:47;12.40;99.90
12119;DHT22;6123;48.864;9.200;2023-05-24T02:18:14;12.40;99.90
12119;DHT22;6123;48.864;9.200;2023-05-24T02:20:42;12.50;99.90
12119;DHT22;6123;48.864;9.200;2023-05-24T02:23:08;12.50;99.90
12119;DHT22;6123;48.864;9.200;2023-05-24T02:25:33;12.40;99.90
12119;DHT22;6123;48.864;9.200;2023-05-24T02:27:59;12.50;99.90
12119;DHT22;6123;48.864;9.200;2023-05-24T02:30:25;12.40;99.90
12119;DHT22;6123;48.864;9.200;2023-05-24T02:32:50;12.30;99.90
12119;DHT22;6123;48.864;9.200;2023-05-24T02:35:16;12.30;99.90
12119;DHT22;6123;48.864;9.200;2023-05-24T02:37:41;12.40;99.90
12119;DHT22;6123;48.864;9.200;2023-05-24T02:40:07;12.30;99.90
12119;DHT22;6123;48.864;9.200;2023-05-24T02:42:34;12.30;99.90
12119;DHT22;6123;48.864;9.200;2023-05-24T02:45:02;12.30;99.90
12119;DHT22;6123;48.864;9.200;2023-05-24T02:47:27;12.40;99.90
12119;DHT22;6123;48.864;9.200;2023-05-24T02:49:53;12.50;99.90
12119;DHT22;6123;48.864;9.200;2023-05-24T02:52:19;12.40;99.90
12119;DHT22;6123;48.864;9.200;2023-05-24T02:54:48;12.30;99.90
12119;DHT22;6123;48.864;9.200;2023-05-24T02:57:14;12.30;99.90
12119;DHT22;6123;48.864;9.200;2023-05-24T02:59:40;12.40;99.90
12119;DHT22;6123;48.864;9.200;2023-05-24T03:02:06;12.30;99.90
12119;DHT22;6123;48.864;9.200;2023-05-24T03:04:31;12.20;99.90
12119;DHT22;6123;48.864;9.200;2023-05-24T03:06:57;12.30;99.90
12119;DHT22;6123;48.864;9.200;2023-05-24T03:09:22;12.40;99.90
12119;DHT22;6123;48.864;9.200;2023-05-24T03:11:48;12.20;99.90
12119;DHT22;6123;48.864;9.200;2023-05-24T03:14:13;12.20;99.90
12119;DHT22;6123;48.864;9.200;2023-05-24T03:16:41;12.20;99.90
12119;DHT22;6123;48.864;9.200;2023-05-24T03:19:07;12.30;99.90
12119;DHT22;6123;48.864;9.200;2023-05-24T03:21:32;12.10;99.90
12119;DHT22;6123;48.864;9.200;2023-05-24T03:23:57;12.00;99.90
12119;DHT22;6123;48.864;9.200;2023-05-24T03:26:23;12.00;99.90
12119;DHT22;6123;48.864;9.200;2023-05-24T03:28:49;12.10;99.90
12119;DHT22;6123;48.864;9.200;2023-05-24T03:31:18;12.00;99.90
12119;DHT22;6123;48.864;9.200;2023-05-24T03:33:45;12.10;99.90
12119;DHT22;6123;48.864;9.200;2023-05-24T03:36:10;12.00;99.90
12119;DHT22;6123;48.864;9.200;2023-05-24T03:38:36;11.90;99.90
12119;DHT22;6123;48.864;9.200;2023-05-24T03:41:01;12.00;99.90
12119;DHT22;6123;48.864;9.200;2023-05-24T03:43:27;11.90;99.90
12119;DHT22;6123;48.864;9.200;2023-05-24T03:45:52;11.90;99.90
12119;DHT22;6123;48.864;9.200;2023-05-24T03:48:18;12.00;99.90
12119;DHT22;6123;48.864;9.200;2023-05-24T03:50:45;11.90;99.90
12119;DHT22;6123;48.864;9.200;2023-05-24T03:53:11;12.00;99.90
12119;DHT22;6123;48.864;9.200;2023-05-24T03:55:36;12.00;99.90
12119;DHT22;6123;48.864;9.200;2023-05-24T03:58:02;12.00;99.90
12119;DHT22;6123;48.864;9.200;2023-05-24T04:00:28;12.00;99.90
12119;DHT22;6123;48.864;9.200;2023-05-24T04:02:53;11.90;99.90
12119;DHT22;6123;48.864;9.200;2023-05-24T04:05:20;11.70;99.90
12119;DHT22;6123;48.864;9.200;2023-05-24T04:07:46;11.80;99.90
12119;DHT22;6123;48.864;9.200;2023-05-24T04:10:12;11.90;99.90
12119;DHT22;6123;48.864;9.200;2023-05-24T04:12:39;12.00;99.90
12119;DHT22;6123;48.864;9.200;2023-05-24T04:15:05;12.00;99.90
12119;DHT22;6123;48.864;9.200;2023-05-24T04:17:31;11.90;99.90
12119;DHT22;6123;48.864;9.200;2023-05-24T04:19:59;11.90;99.90
12119;DHT22;6123;48.864;9.200;2023-05-24T04:22:25;11.90;99.90
12119;DHT22;6123;48.864;9.200;2023-05-24T04:24:51;11.90;99.90
12119;DHT22;6123;48.864;9.200;2023-05-24T04:27:16;11.90;99.90
12119;DHT22;6123;48.864;9.200;2023-05-24T04:29:44;11.90;99.90
12119;DHT22;6123;48.864;9.200;2023-05-24T04:32:10;12.00;99.90
12119;DHT22;6123;48.864;9.200;2023-05-24T04:34:39;12.00;99.90
12119;DHT22;6123;48.864;9.200;2023-05-24T04:37:07;12.00;99.90
12119;DHT22;6123;48.864;9.200;2023-05-24T04:39:32;12.00;99.90
12119;DHT22;6123;48.864;9.200;2023-05-24T04:41:58;12.90;99.90
12119;DHT22;6123;48.864;9.200;2023-05-24T04:44:24;12.00;99.90
12119;DHT22;6123;48.864;9.200;2023-05-24T04:46:50;11.90;99.90
12119;DHT22;6123;48.864;9.200;2023-05-24T04:49:15;12.00;99.90
12119;DHT22;6123;48.864;9.200;2023-05-24T04:51:42;11.80;99.90
12119;DHT22;6123;48.864;9.200;2023-05-24T04:54:07;11.70;99.90
12119;DHT22;6123;48.864;9.200;2023-05-24T04:56:36;11.90;99.90
12119;DHT22;6123;48.864;9.200;2023-05-24T04:59:06;11.90;99.90
12119;DHT22;6123;48.864;9.200;2023-05-24T05:01:32;11.90;99.90
12119;DHT22;6123;48.864;9.200;2023-05-24T05:03:58;11.90;99.90
12119;DHT22;6123;48.864;9.200;2023-05-24T05:06:24;11.80;99.90
12119;DHT22;6123;48.864;9.200;2023-05-24T05:08:50;11.90;99.90
12119;DHT22;6123;48.864;9.200;2023-05-24T05:11:18;12.00;99.90
12119;DHT22;6123;48.864;9.200;2023-05-24T05:13:45;11.90;99.90
12119;DHT22;6123;48.864;9.200;2023-05-24T05:16:10;11.90;99.90
12119;DHT22;6123;48.864;9.200;2023-05-24T05:18:36;12.00;99.90
12119;DHT22;6123;48.864;9.200;2023-05-24T05:21:02;12.00;99.90
12119;DHT22;6123;48.864;9.200;2023-05-24T05:23:28;12.10;99.90
12119;DHT22;6123;48.864;9.200;2023-05-24T05:25:54;12.00;99.90
12119;DHT22;6123;48.864;9.200;2023-05-24T05:28:19;12.10;99.90
12119;DHT22;6123;48.864;9.200;2023-05-24T05:30:45;12.00;99.90
12119;DHT22;6123;48.864;9.200;2023-05-24T05:33:11;12.00;99.90
12119;DHT22;6123;48.864;9.200;2023-05-24T05:35:36;12.10;99.90
12119;DHT22;6123;48.864;9.200;2023-05-24T05:38:02;12.30;99.90
12119;DHT22;6123;48.864;9.200;2023-05-24T05:40:27;12.30;99.90
12119;DHT22;6123;48.864;9.200;2023-05-24T05:42:53;12.30;99.90
12119;DHT22;6123;48.864;9.200;2023-05-24T05:45:19;12.40;99.90
12119;DHT22;6123;48.864;9.200;2023-05-24T05:47:44;12.60;99.90
12119;DHT22;6123;48.864;9.200;2023-05-24T05:50:10;12.50;99.90
12119;DHT22;6123;48.864;9.200;2023-05-24T05:52:35;12.50;99.90
12119;DHT22;6123;48.864;9.200;2023-05-24T05:55:01;12.40;99.90
12119;DHT22;6123;48.864;9.200;2023-05-24T05:57:27;12.50;99.90
12119;DHT22;6123;48.864;9.200;2023-05-24T05:59:52;12.60;99.90
12119;DHT22;6123;48.864;9.200;2023-05-24T06:02:18;12.70;99.90
12119;DHT22;6123;48.864;9.200;2023-05-24T06:04:45;12.80;99.90
12119;DHT22;6123;48.864;9.200;2023-05-24T06:07:11;12.80;99.90
12119;DHT22;6123;48.864;9.200;2023-05-24T06:09:36;12.80;99.90
12119;DHT22;6123;48.864;9.200;2023-05-24T06:12:02;12.80;99.90
12119;DHT22;6123;48.864;9.200;2023-05-24T06:14:27;12.80;99.90
12119;DHT22;6123;48.864;9.200;2023-05-24T06:16:53;12.70;99.90
12119;DHT22;6123;48.864;9.200;2023-05-24T06:19:19;12.60;99.90
12119;DHT22;6123;48.864;9.200;2023-05-24T06:21:47;12.50;99.90
12119;DHT22;6123;48.864;9.200;2023-05-24T06:24:14;12.40;99.90
12119;DHT22;6123;48.864;9.200;2023-05-24T06:26:40;12.60;99.90
12119;DHT22;6123;48.864;9.200;2023-05-24T06:29:06;12.80;99.90
12119;DHT22;6123;48.864;9.200;2023-05-24T06:31:32;12.90;99.90
12119;DHT22;6123;48.864;9.200;2023-05-24T06:33:59;12.90;99.90
12119;DHT22;6123;48.864;9.200;2023-05-24T06:36:24;12.70;99.90
12119;DHT22;6123;48.864;9.200;2023-05-24T06:38:50;12.80;99.90
12119;DHT22;6123;48.864;9.200;2023-05-24T06:41:16;12.90;99.90
12119;DHT22;6123;48.864;9.200;2023-05-24T06:43:42;12.90;99.90
12119;DHT22;6123;48.864;9.200;2023-05-24T06:46:08;12.90;99.90
12119;DHT22;6123;48.864;9.200;2023-05-24T06:48:34;12.80;99.90
12119;DHT22;6123;48.864;9.200;2023-05-24T06:50:59;12.80;99.90
12119;DHT22;6123;48.864;9.200;2023-05-24T06:53:25;12.80;99.90
12119;DHT22;6123;48.864;9.200;2023-05-24T06:55:51;12.80;99.90
12119;DHT22;6123;48.864;9.200;2023-05-24T06:58:17;12.80;99.90
12119;DHT22;6123;48.864;9.200;2023-05-24T07:00:42;12.80;99.90
12119;DHT22;6123;48.864;9.200;2023-05-24T07:03:11;12.70;99.90
12119;DHT22;6123;48.864;9.200;2023-05-24T07:05:37;12.70;99.90
12119;DHT22;6123;48.864;9.200;2023-05-24T07:08:03;12.50;99.90
12119;DHT22;6123;48.864;9.200;2023-05-24T07:10:28;12.60;99.90
12119;DHT22;6123;48.864;9.200;2023-05-24T07:12:54;12.80;99.90
12119;DHT22;6123;48.864;9.200;2023-05-24T07:15:20;12.90;99.90
12119;DHT22;6123;48.864;9.200;2023-05-24T07:17:45;13.00;99.90
12119;DHT22;6123;48.864;9.200;2023-05-24T07:20:12;12.70;99.90
12119;DHT22;6123;48.864;9.200;2023-05-24T07:22:39;12.50;99.90
12119;DHT22;6123;48.864;9.200;2023-05-24T07:25:05;12.70;99.90
12119;DHT22;6123;48.864;9.200;2023-05-24T07:27:30;12.80;99.90
12119;DHT22;6123;48.864;9.200;2023-05-24T07:29:57;13.00;99.90
12119;DHT22;6123;48.864;9.200;2023-05-24T07:32:23;13.10;99.90
12119;DHT22;6123;48.864;9.200;2023-05-24T07:34:48;12.70;99.90
12119;DHT22;6123;48.864;9.200;2023-05-24T07:37:14;13.10;99.90
12119;DHT22;6123;48.864;9.200;2023-05-24T07:39:41;13.20;99.90
12119;DHT22;6123;48.864;9.200;2023-05-24T07:42:07;13.50;99.90
12119;DHT22;6123;48.864;9.200;2023-05-24T07:44:32;13.40;99.90
12119;DHT22;6123;48.864;9.200;2023-05-24T07:46:58;13.50;99.90
12119;DHT22;6123;48.864;9.200;2023-05-24T07:49:23;12.70;99.90
12119;DHT22;6123;48.864;9.200;2023-05-24T07:51:49;13.40;99.90
12119;DHT22;6123;48.864;9.200;2023-05-24T07:54:14;13.40;99.90
12119;DHT22;6123;48.864;9.200;2023-05-24T07:56:41;13.20;99.90
12119;DHT22;6123;48.864;9.200;2023-05-24T07:59:06;13.40;99.90
12119;DHT22;6123;48.864;9.200;2023-05-24T08:01:33;13.40;99.90
12119;DHT22;6123;48.864;9.200;2023-05-24T08:04:00;13.40;99.90
12119;DHT22;6123;48.864;9.200;2023-05-24T08:06:28;13.40;99.90
12119;DHT22;6123;48.864;9.200;2023-05-24T08:08:54;14.20;99.90
12119;DHT22;6123;48.864;9.200;2023-05-24T08:11:21;14.50;99.90
12119;DHT22;6123;48.864;9.200;2023-05-24T08:13:46;14.80;99.90
12119;DHT22;6123;48.864;9.200;2023-05-24T08:16:12;15.10;99.90
12119;DHT22;6123;48.864;9.200;2023-05-24T08:18:38;14.90;99.90
12119;DHT22;6123;48.864;9.200;2023-05-24T08:21:03;15.00;99.90
12119;DHT22;6123;48.864;9.200;2023-05-24T08:23:29;15.30;99.90
12119;DHT22;6123;48.864;9.200;2023-05-24T08:25:56;14.90;99.90
12119;DHT22;6123;48.864;9.200;2023-05-24T08:28:22;15.10;99.90
12119;DHT22;6123;48.864;9.200;2023-05-24T08:30:47;14.70;99.90
12119;DHT22;6123;48.864;9.200;2023-05-24T08:33:13;13.90;99.90
12119;DHT22;6123;48.864;9.200;2023-05-24T08:35:38;13.80;99.90
12119;DHT22;6123;48.864;9.200;2023-05-24T08:38:05;13.90;99.90
12119;DHT22;6123;48.864;9.200;2023-05-24T08:40:30;14.00;99.90
12119;DHT22;6123;48.864;9.200;2023-05-24T08:42:59;13.50;99.90
12119;DHT22;6123;48.864;9.200;2023-05-24T08:45:25;13.70;99.90
12119;DHT22;6123;48.864;9.200;2023-05-24T08:47:55;14.00;99.90
12119;DHT22;6123;48.864;9.200;2023-05-24T08:50:21;14.20;99.90
12119;DHT22;6123;48.864;9.200;2023-05-24T08:52:47;14.20;99.90
12119;DHT22;6123;48.864;9.200;2023-05-24T08:55:14;14.20;99.90
12119;DHT22;6123;48.864;9.200;2023-05-24T08:57:40;13.90;99.90
12119;DHT22;6123;48.864;9.200;2023-05-24T09:00:07;14.10;99.90
12119;DHT22;6123;48.864;9.200;2023-05-24T09:02:36;14.10;99.90
12119;DHT22;6123;48.864;9.200;2023-05-24T09:05:03;14.20;99.90
12119;DHT22;6123;48.864;9.200;2023-05-24T09:07:31;14.20;99.90
12119;DHT22;6123;48.864;9.200;2023-05-24T09:10:05;14.10;99.90
12119;DHT22;6123;48.864;9.200;2023-05-24T09:12:32;13.20;99.90
12119;DHT22;6123;48.864;9.200;2023-05-24T09:14:58;13.40;99.90
12119;DHT22;6123;48.864;9.200;2023-05-24T09:17:24;13.40;99.90
12119;DHT22;6123;48.864;9.200;2023-05-24T09:19:51;13.80;99.90
12119;DHT22;6123;48.864;9.200;2023-05-24T09:22:18;14.00;99.90
12119;DHT22;6123;48.864;9.200;2023-05-24T09:24:50;13.50;99.90
12119;DHT22;6123;48.864;9.200;2023-05-24T09:27:17;13.80;99.90
12119;DHT22;6123;48.864;9.200;2023-05-24T09:29:46;14.00;99.90
12119;DHT22;6123;48.864;9.200;2023-05-24T09:32:13;13.90;99.90
12119;DHT22;6123;48.864;9.200;2023-05-24T09:34:40;13.70;99.90
12119;DHT22;6123;48.864;9.200;2023-05-24T09:37:19;13.80;99.90
12119;DHT22;6123;48.864;9.200;2023-05-24T09:39:46;13.30;99.90
12119;DHT22;6123;48.864;9.200;2023-05-24T09:42:23;13.60;99.90
12119;DHT22;6123;48.864;9.200;2023-05-24T09:45:06;13.60;99.90
12119;DHT22;6123;48.864;9.200;2023-05-24T09:47:35;13.90;99.90
12119;DHT22;6123;48.864;9.200;2023-05-24T09:50:02;14.00;99.90
12119;DHT22;6123;48.864;9.200;2023-05-24T09:52:28;14.00;99.90
12119;DHT22;6123;48.864;9.200;2023-05-24T09:54:54;14.10;99.90
12119;DHT22;6123;48.864;9.200;2023-05-24T09:57:20;13.90;99.90
12119;DHT22;6123;48.864;9.200;2023-05-24T09:59:50;13.80;99.90
12119;DHT22;6123;48.864;9.200;2023-05-24T10:02:17;13.80;99.90
12119;DHT22;6123;48.864;9.200;2023-05-24T10:04:47;13.90;99.90
12119;DHT22;6123;48.864;9.200;2023-05-24T10:07:12;13.70;99.90
12119;DHT22;6123;48.864;9.200;2023-05-24T10:09:39;13.80;99.90
12119;DHT22;6123;48.864;9.200;2023-05-24T10:12:06;13.90;99.90
12119;DHT22;6123;48.864;9.200;2023-05-24T10:14:35;14.00;99.90
12119;DHT22;6123;48.864;9.200;2023-05-24T10:17:05;14.10;99.90
12119;DHT22;6123;48.864;9.200;2023-05-24T10:19:32;14.00;99.90
12119;DHT22;6123;48.864;9.200;2023-05-24T10:21:58;14.00;99.90
12119;DHT22;6123;48.864;9.200;2023-05-24T10:24:31;13.80;99.90
12119;DHT22;6123;48.864;9.200;2023-05-24T10:26:57;13.50;99.90
12119;DHT22;6123;48.864;9.200;2023-05-24T10:32:16;13.30;99.90
12119;DHT22;6123;48.864;9.200;2023-05-24T10:34:44;13.70;99.90
12119;DHT22;6123;48.864;9.200;2023-05-24T10:37:11;14.10;99.90
12119;DHT22;6123;48.864;9.200;2023-05-24T10:39:36;14.20;99.90
12119;DHT22;6123;48.864;9.200;2023-05-24T10:42:04;14.30;99.90
12119;DHT22;6123;48.864;9.200;2023-05-24T10:44:31;14.20;99.90
12119;DHT22;6123;48.864;9.200;2023-05-24T10:47:13;14.10;99.90
12119;DHT22;6123;48.864;9.200;2023-05-24T10:49:55;13.80;99.90
12119;DHT22;6123;48.864;9.200;2023-05-24T10:52:32;14.30;99.90
12119;DHT22;6123;48.864;9.200;2023-05-24T10:55:06;14.50;99.90
12119;DHT22;6123;48.864;9.200;2023-05-24T10:57:34;14.30;99.90
12119;DHT22;6123;48.864;9.200;2023-05-24T11:02:47;14.60;99.90
12119;DHT22;6123;48.864;9.200;2023-05-24T11:05:13;14.90;99.90
12119;DHT22;6123;48.864;9.200;2023-05-24T11:07:42;15.10;99.90
12119;DHT22;6123;48.864;9.200;2023-05-24T11:10:29;15.00;99.90
12119;DHT22;6123;48.864;9.200;2023-05-24T11:12:58;15.20;99.90
12119;DHT22;6123;48.864;9.200;2023-05-24T11:15:25;15.40;99.90
12119;DHT22;6123;48.864;9.200;2023-05-24T11:20:37;15.70;99.90
12119;DHT22;6123;48.864;9.200;2023-05-24T11:23:06;16.00;99.90
12119;DHT22;6123;48.864;9.200;2023-05-24T11:25:34;16.00;99.90
12119;DHT22;6123;48.864;9.200;2023-05-24T11:28:02;16.00;99.90
12119;DHT22;6123;48.864;9.200;2023-05-24T11:30:31;16.20;99.90
12119;DHT22;6123;48.864;9.200;2023-05-24T11:32:57;16.10;99.90
12119;DHT22;6123;48.864;9.200;2023-05-24T11:35:25;16.10;99.90
12119;DHT22;6123;48.864;9.200;2023-05-24T11:37:52;16.30;99.90
12119;DHT22;6123;48.864;9.200;2023-05-24T11:40:18;16.50;99.90
12119;DHT22;6123;48.864;9.200;2023-05-24T11:42:44;16.90;99.90
12119;DHT22;6123;48.864;9.200;2023-05-24T11:45:11;16.60;99.90
12119;DHT22;6123;48.864;9.200;2023-05-24T11:47:40;17.40;99.90
12119;DHT22;6123;48.864;9.200;2023-05-24T11:50:06;18.10;99.90
12119;DHT22;6123;48.864;9.200;2023-05-24T11:52:32;17.60;99.90
12119;DHT22;6123;48.864;9.200;2023-05-24T11:55:02;18.20;99.90
12119;DHT22;6123;48.864;9.200;2023-05-24T11:57:32;18.60;99.90
12119;DHT22;6123;48.864;9.200;2023-05-24T12:00:00;19.10;99.90
12119;DHT22;6123;48.864;9.200;2023-05-24T12:02:28;19.10;98.40
12119;DHT22;6123;48.864;9.200;2023-05-24T12:05:04;18.70;99.40
12119;DHT22;6123;48.864;9.200;2023-05-24T12:07:30;19.00;98.40
12119;DHT22;6123;48.864;9.200;2023-05-24T12:09:55;19.50;96.90
12119;DHT22;6123;48.864;9.200;2023-05-24T12:12:21;18.60;98.80
12119;DHT22;6123;48.864;9.200;2023-05-24T12:14:46;19.50;97.40
12119;DHT22;6123;48.864;9.200;2023-05-24T12:17:15;19.20;98.50
12119;DHT22;6123;48.864;9.200;2023-05-24T12:19:42;19.20;97.30
12119;DHT22;6123;48.864;9.200;2023-05-24T12:22:08;19.40;97.60
12119;DHT22;6123;48.864;9.200;2023-05-24T12:24:36;19.00;96.40
12119;DHT22;6123;48.864;9.200;2023-05-24T12:27:03;19.00;97.70
12119;DHT22;6123;48.864;9.200;2023-05-24T12:29:49;18.60;99.10
12119;DHT22;6123;48.864;9.200;2023-05-24T12:32:16;18.90;99.30
12119;DHT22;6123;48.864;9.200;2023-05-24T12:34:42;18.80;99.90
12119;DHT22;6123;48.864;9.200;2023-05-24T12:37:13;20.50;97.50
12119;DHT22;6123;48.864;9.200;2023-05-24T12:39:38;20.20;96.70
12119;DHT22;6123;48.864;9.200;2023-05-24T12:42:06;20.30;94.80
12119;DHT22;6123;48.864;9.200;2023-05-24T12:44:36;19.70;95.70
12119;DHT22;6123;48.864;9.200;2023-05-24T12:47:04;18.90;97.20
12119;DHT22;6123;48.864;9.200;2023-05-24T12:49:31;18.80;95.00
12119;DHT22;6123;48.864;9.200;2023-05-24T12:51:56;18.50;95.50
12119;DHT22;6123;48.864;9.200;2023-05-24T12:54:24;18.90;94.70
12119;DHT22;6123;48.864;9.200;2023-05-24T12:56:51;18.80;95.40
12119;DHT22;6123;48.864;9.200;2023-05-24T12:59:17;18.80;94.80
12119;DHT22;6123;48.864;9.200;2023-05-24T13:01:43;19.00;94.70
12119;DHT22;6123;48.864;9.200;2023-05-24T13:04:14;19.40;94.40
12119;DHT22;6123;48.864;9.200;2023-05-24T13:06:41;18.80;95.00
12119;DHT22;6123;48.864;9.200;2023-05-24T13:09:06;19.80;91.90
12119;DHT22;6123;48.864;9.200;2023-05-24T13:11:32;20.20;91.90
12119;DHT22;6123;48.864;9.200;2023-05-24T13:13:58;20.50;90.40
12119;DHT22;6123;48.864;9.200;2023-05-24T13:16:24;20.00;90.50
12119;DHT22;6123;48.864;9.200;2023-05-24T13:18:50;20.40;83.00
12119;DHT22;6123;48.864;9.200;2023-05-24T13:21:17;20.50;85.30
12119;DHT22;6123;48.864;9.200;2023-05-24T13:23:43;20.10;84.50
12119;DHT22;6123;48.864;9.200;2023-05-24T13:26:09;19.80;86.90
12119;DHT22;6123;48.864;9.200;2023-05-24T13:28:35;19.60;90.80
12119;DHT22;6123;48.864;9.200;2023-05-24T13:31:01;19.90;90.80
12119;DHT22;6123;48.864;9.200;2023-05-24T13:33:26;19.80;90.40
12119;DHT22;6123;48.864;9.200;2023-05-24T13:35:53;19.50;90.20
12119;DHT22;6123;48.864;9.200;2023-05-24T13:38:19;19.50;86.00
12119;DHT22;6123;48.864;9.200;2023-05-24T13:40:45;19.60;88.40
12119;DHT22;6123;48.864;9.200;2023-05-24T13:43:11;18.80;83.60
12119;DHT22;6123;48.864;9.200;2023-05-24T13:45:36;19.70;87.40
12119;DHT22;6123;48.864;9.200;2023-05-24T13:48:02;19.30;86.10
12119;DHT22;6123;48.864;9.200;2023-05-24T13:50:32;20.20;86.80
12119;DHT22;6123;48.864;9.200;2023-05-24T13:52:58;20.60;83.30
12119;DHT22;6123;48.864;9.200;2023-05-24T13:55:26;20.90;80.20
12119;DHT22;6123;48.864;9.200;2023-05-24T13:57:53;21.40;80.20
12119;DHT22;6123;48.864;9.200;2023-05-24T14:00:20;20.20;83.20
12119;DHT22;6123;48.864;9.200;2023-05-24T14:02:46;20.80;80.50
12119;DHT22;6123;48.864;9.200;2023-05-24T14:05:12;21.30;76.50
12119;DHT22;6123;48.864;9.200;2023-05-24T14:07:37;21.40;76.60
12119;DHT22;6123;48.864;9.200;2023-05-24T14:10:03;21.60;76.00
12119;DHT22;6123;48.864;9.200;2023-05-24T14:12:28;21.20;73.30
12119;DHT22;6123;48.864;9.200;2023-05-24T14:14:56;20.60;73.90
12119;DHT22;6123;48.864;9.200;2023-05-24T14:17:21;20.40;75.70
12119;DHT22;6123;48.864;9.200;2023-05-24T14:19:47;20.80;75.00
12119;DHT22;6123;48.864;9.200;2023-05-24T14:22:13;21.20;70.50
12119;DHT22;6123;48.864;9.200;2023-05-24T14:24:38;21.60;67.00
12119;DHT22;6123;48.864;9.200;2023-05-24T14:27:04;21.90;67.70
12119;DHT22;6123;48.864;9.200;2023-05-24T14:29:31;22.30;68.30
12119;DHT22;6123;48.864;9.200;2023-05-24T14:31:57;22.40;65.90
12119;DHT22;6123;48.864;9.200;2023-05-24T14:34:23;22.00;67.20
12119;DHT22;6123;48.864;9.200;2023-05-24T14:36:48;21.20;66.50
12119;DHT22;6123;48.864;9.200;2023-05-24T14:39:14;20.80;68.40
12119;DHT22;6123;48.864;9.200;2023-05-24T14:41:40;19.10;72.30
12119;DHT22;6123;48.864;9.200;2023-05-24T14:44:05;18.70;80.30
12119;DHT22;6123;48.864;9.200;2023-05-24T14:46:31;19.80;75.10
12119;DHT22;6123;48.864;9.200;2023-05-24T14:48:57;19.70;73.30
12119;DHT22;6123;48.864;9.200;2023-05-24T14:51:22;19.90;75.60
12119;DHT22;6123;48.864;9.200;2023-05-24T14:53:48;19.70;77.30
12119;DHT22;6123;48.864;9.200;2023-05-24T14:56:14;20.50;70.40
12119;DHT22;6123;48.864;9.200;2023-05-24T14:58:40;20.90;67.20
12119;DHT22;6123;48.864;9.200;2023-05-24T15:01:06;20.60;66.90
12119;DHT22;6123;48.864;9.200;2023-05-24T15:03:32;20.70;67.30
12119;DHT22;6123;48.864;9.200;2023-05-24T15:05:59;19.60;71.90
12119;DHT22;6123;48.864;9.200;2023-05-24T15:08:24;19.70;76.20
12119;DHT22;6123;48.864;9.200;2023-05-24T15:10:50;21.10;74.30
12119;DHT22;6123;48.864;9.200;2023-05-24T15:13:16;21.50;69.70
12119;DHT22;6123;48.864;9.200;2023-05-24T15:15:42;22.00;67.30
12119;DHT22;6123;48.864;9.200;2023-05-24T15:18:08;22.10;67.60
12119;DHT22;6123;48.864;9.200;2023-05-24T15:20:34;22.40;65.90
12119;DHT22;6123;48.864;9.200;2023-05-24T15:23:01;22.10;62.20
12119;DHT22;6123;48.864;9.200;2023-05-24T15:25:26;21.60;60.80
12119;DHT22;6123;48.864;9.200;2023-05-24T15:27:52;21.30;66.10
12119;DHT22;6123;48.864;9.200;2023-05-24T15:30:18;21.20;64.80
12119;DHT22;6123;48.864;9.200;2023-05-24T15:32:44;20.40;65.60
12119;DHT22;6123;48.864;9.200;2023-05-24T15:35:12;20.70;68.90
12119;DHT22;6123;48.864;9.200;2023-05-24T15:37:38;21.30;67.40
12119;DHT22;6123;48.864;9.200;2023-05-24T15:40:08;21.80;67.10
12119;DHT22;6123;48.864;9.200;2023-05-24T15:42:34;20.50;67.60
12119;DHT22;6123;48.864;9.200;2023-05-24T15:45:00;21.40;64.60
12119;DHT22;6123;48.864;9.200;2023-05-24T15:47:25;21.90;62.70
12119;DHT22;6123;48.864;9.200;2023-05-24T15:49:53;22.10;64.80
12119;DHT22;6123;48.864;9.200;2023-05-24T15:52:19;22.10;64.60
12119;DHT22;6123;48.864;9.200;2023-05-24T15:54:45;22.10;65.30
12119;DHT22;6123;48.864;9.200;2023-05-24T15:57:10;22.00;62.60
12119;DHT22;6123;48.864;9.200;2023-05-24T15:59:36;21.50;66.50
12119;DHT22;6123;48.864;9.200;2023-05-24T16:02:04;21.20;67.10